createdAt,value
2022-12-09T00:02:15.842Z,96031.63
2022-12-09T00:04:45.398Z,96022.91
2022-12-09T00:07:15.164Z,96017.91
2022-12-09T00:09:44.684Z,96026.88
2022-12-09T00:12:13.665Z,96021.09
2022-12-09T00:14:44.266Z,96015.28
2022-12-09T00:17:13.463Z,96023.75
2022-12-09T00:19:42.931Z,96030.59
2022-12-09T00:22:11.885Z,96022.38
2022-12-09T00:24:40.931Z,96017.09
2022-12-09T00:27:10.086Z,96020.53
2022-12-09T00:29:39.192Z,96023.69
2022-12-09T00:32:10.862Z,96009.41
2022-12-09T00:34:40.278Z,96010.75
2022-12-09T00:37:10.211Z,96018.69
2022-12-09T00:39:39.104Z,96016.88
2022-12-09T00:42:33.003Z,96022.94
2022-12-09T00:45:02.435Z,96012.59
2022-12-09T00:47:35.366Z,96012.88
2022-12-09T00:50:05.487Z,96016.88
2022-12-09T00:52:39.323Z,96021.34
2022-12-09T00:55:12.424Z,96020.56
2022-12-09T00:57:41.782Z,96021.13
2022-12-09T01:00:12.437Z,96007.88
2022-12-09T01:02:43.140Z,95998.06
2022-12-09T01:05:13.808Z,95997.78
2022-12-09T01:07:46.066Z,95994.09
2022-12-09T01:10:15.471Z,95987.75
2022-12-09T01:12:45.006Z,95992.25
2022-12-09T01:15:14.059Z,95992.50
2022-12-09T01:17:44.069Z,95981.94
2022-12-09T01:20:12.617Z,95982.97
2022-12-09T01:22:40.843Z,95983.22
2022-12-09T01:25:09.845Z,95980.28
2022-12-09T01:27:38.107Z,95975.22
2022-12-09T01:30:08.158Z,95977.63
2022-12-09T01:32:36.616Z,95972.88
2022-12-09T01:35:06.910Z,95957.03
2022-12-09T01:37:35.275Z,95959.16
2022-12-09T01:40:07.777Z,95955.44
2022-12-09T01:42:36.127Z,95952.78
2022-12-09T01:45:40.141Z,95939.56
2022-12-09T01:48:11.553Z,95947.50
2022-12-09T01:50:48.375Z,95952.81
2022-12-09T01:53:17.408Z,95950.91
2022-12-09T01:55:45.989Z,95951.22
2022-12-09T01:58:15.008Z,95951.22
2022-12-09T02:00:43.907Z,95946.44
2022-12-09T02:03:12.764Z,95945.91
2022-12-09T02:05:41.249Z,95944.56
2022-12-09T02:08:13.722Z,95942.72
2022-12-09T02:10:50.749Z,95945.84
2022-12-09T02:13:26.883Z,95943.19
2022-12-09T02:15:59.598Z,95960.91
2022-12-09T02:18:33.832Z,95945.34
2022-12-09T02:21:04.578Z,95940.53
2022-12-09T02:23:39.947Z,95926.03
2022-12-09T02:26:18.599Z,95933.69
2022-12-09T02:28:59.187Z,95935.81
2022-12-09T02:31:45.462Z,95925.75
2022-12-09T02:34:19.017Z,95922.59
2022-12-09T02:36:57.890Z,95918.91
2022-12-09T02:39:30.546Z,95922.06
2022-12-09T02:41:59.599Z,95909.13
2022-12-09T02:44:28.586Z,95902.25
2022-12-09T02:46:57.557Z,95914.38
2022-12-09T02:49:28.102Z,95899.31
2022-12-09T02:51:57.068Z,95897.22
2022-12-09T02:54:27.045Z,95901.44
2022-12-09T02:56:57.822Z,95889.53
2022-12-09T02:59:28.847Z,95895.59
2022-12-09T03:02:03.311Z,95906.72
2022-12-09T03:04:33.216Z,95903.00
2022-12-09T03:07:09.072Z,95877.91
2022-12-09T03:09:40.681Z,95881.03
2022-12-09T03:12:09.845Z,95890.84
2022-12-09T03:14:42.056Z,95890.31
2022-12-09T03:17:14.955Z,95894.78
2022-12-09T03:19:47.356Z,95908.81
2022-12-09T03:22:20.166Z,95894.53
2022-12-09T03:24:51.531Z,95884.22
2022-12-09T03:27:23.593Z,95869.69
2022-12-09T03:29:53.276Z,95859.63
2022-12-09T03:32:25.635Z,95861.47
2022-12-09T03:34:59.213Z,95862.28
2022-12-09T03:37:27.918Z,95878.16
2022-12-09T03:39:57.525Z,95867.06
2022-12-09T03:42:29.739Z,95859.63
2022-12-09T03:45:01.146Z,95851.19
2022-12-09T03:47:33.371Z,95849.06
2022-12-09T03:50:03.066Z,95851.94
2022-12-09T03:52:34.158Z,95842.66
2022-12-09T03:55:06.881Z,95842.41
2022-12-09T03:57:36.639Z,95855.88
2022-12-09T04:00:06.931Z,95848.50
2022-12-09T04:02:40.768Z,95845.59
2022-12-09T04:05:11.194Z,95837.94
2022-12-09T04:07:39.739Z,95833.13
2022-12-09T04:10:09.458Z,95830.00
2022-12-09T04:12:40.997Z,95826.31
2022-12-09T04:15:10.532Z,95836.34
2022-12-09T04:17:38.674Z,95829.19
2022-12-09T04:20:08.199Z,95834.22
2022-12-09T04:22:38.136Z,95830.50
2022-12-09T04:25:07.056Z,95823.66
2022-12-09T04:27:35.227Z,95823.34
2022-12-09T04:30:03.574Z,95834.22
2022-12-09T04:32:33.738Z,95831.84
2022-12-09T04:35:02.218Z,95832.66
2022-12-09T04:37:30.332Z,95824.47
2022-12-09T04:39:59.651Z,95810.97
2022-12-09T04:42:29.305Z,95813.59
2022-12-09T04:44:57.414Z,95820.94
2022-12-09T04:47:25.473Z,95830.72
2022-12-09T04:49:53.494Z,95821.50
2022-12-09T04:52:22.724Z,95813.03
2022-12-09T04:54:51.381Z,95817.03
2022-12-09T04:57:20.894Z,95819.91
2022-12-09T04:59:48.973Z,95832.88
2022-12-09T05:02:17.039Z,95824.16
2022-12-09T05:04:47.035Z,95817.81
2022-12-09T05:07:15.603Z,95816.00
2022-12-09T05:09:43.853Z,95793.50
2022-12-09T05:12:12.070Z,95792.72
2022-12-09T05:14:41.697Z,95779.78
2022-12-09T05:17:10.250Z,95770.53
2022-12-09T05:19:38.371Z,95769.75
2022-12-09T05:22:06.492Z,95772.41
2022-12-09T05:24:34.888Z,95764.97
2022-12-09T05:27:03.260Z,95771.06
2022-12-09T05:29:31.538Z,95762.84
2022-12-09T05:32:01.087Z,95753.63
2022-12-09T05:34:29.924Z,95751.22
2022-12-09T05:36:58.409Z,95756.25
2022-12-09T05:39:26.738Z,95751.50
2022-12-09T05:41:54.963Z,95736.97
2022-12-09T05:44:23.250Z,95733.78
2022-12-09T05:46:51.457Z,95732.19
2022-12-09T05:49:21.240Z,95728.00
2022-12-09T05:51:49.661Z,95727.44
2022-12-09T05:54:17.959Z,95732.22
2022-12-09T05:56:48.303Z,95734.31
2022-12-09T05:59:17.073Z,95741.19
2022-12-09T06:01:45.187Z,95731.72
2022-12-09T06:04:13.736Z,95730.91
2022-12-09T06:06:43.575Z,95730.13
2022-12-09T06:09:12.479Z,95729.88
2022-12-09T06:11:41.821Z,95735.16
2022-12-09T06:14:11.364Z,95732.75
2022-12-09T06:16:40.054Z,95733.81
2022-12-09T06:19:08.800Z,95719.81
2022-12-09T06:21:40.918Z,95719.00
2022-12-09T06:24:11.263Z,95717.94
2022-12-09T06:26:39.419Z,95713.22
2022-12-09T06:29:07.642Z,95723.78
2022-12-09T06:31:35.827Z,95720.06
2022-12-09T06:34:04.525Z,95714.53
2022-12-09T06:36:33.298Z,95718.22
2022-12-09T06:39:09.964Z,95725.88
2022-12-09T06:41:42.151Z,95717.19
2022-12-09T06:44:14.809Z,95711.88
2022-12-09T06:46:47.970Z,95710.81
2022-12-09T06:49:16.516Z,95707.66
2022-12-09T06:51:44.727Z,95705.53
2022-12-09T06:54:13.474Z,95706.06
2022-12-09T06:56:43.098Z,95705.28
2022-12-09T06:59:11.896Z,95700.78
2022-12-09T07:01:40.819Z,95700.25
2022-12-09T07:04:09.373Z,95697.59
2022-12-09T07:06:39.294Z,95701.03
2022-12-09T07:09:09.127Z,95704.72
2022-12-09T07:11:38.546Z,95706.59
2022-12-09T07:14:08.254Z,95702.38
2022-12-09T07:16:37.487Z,95696.03
2022-12-09T07:19:06.238Z,95692.59
2022-12-09T07:21:35.215Z,95701.84
2022-12-09T07:24:04.705Z,95693.09
2022-12-09T07:26:33.646Z,95696.81
2022-12-09T07:29:03.821Z,95697.88
2022-12-09T07:31:34.460Z,95689.38
2022-12-09T07:34:03.129Z,95691.00
2022-12-09T07:36:33.631Z,95692.59
2022-12-09T07:39:03.261Z,95694.69
2022-12-09T07:41:31.713Z,95703.16
2022-12-09T07:43:59.957Z,95697.59
2022-12-09T07:46:28.757Z,95712.91
2022-12-09T07:48:58.982Z,95704.22
2022-12-09T07:51:29.573Z,95712.66
2022-12-09T07:53:58.035Z,95718.47
2022-12-09T07:56:28.421Z,95712.66
2022-12-09T07:58:57.451Z,95708.69
2022-12-09T08:01:28.489Z,95704.72
2022-12-09T08:03:58.480Z,95703.94
2022-12-09T08:06:28.604Z,95694.66
2022-12-09T08:08:59.570Z,95697.59
2022-12-09T08:11:29.520Z,95693.63
2022-12-09T08:13:58.900Z,95689.41
2022-12-09T08:16:27.885Z,95686.22
2022-12-09T08:18:59.278Z,95685.16
2022-12-09T08:21:30.625Z,95687.56
2022-12-09T08:24:01.563Z,95680.44
2022-12-09T08:26:32.246Z,95687.56
2022-12-09T08:29:01.921Z,95680.44
2022-12-09T08:31:38.815Z,95688.09
2022-12-09T08:34:15.296Z,95679.38
2022-12-09T08:36:50.860Z,95677.78
2022-12-09T08:39:20.298Z,95662.47
2022-12-09T08:41:49.685Z,95665.38
2022-12-09T08:44:20.278Z,95657.16
2022-12-09T08:46:51.163Z,95657.44
2022-12-09T08:49:24.506Z,95657.19
2022-12-09T08:51:54.814Z,95670.91
2022-12-09T08:54:25.753Z,95670.13
2022-12-09T08:56:56.385Z,95663.78
2022-12-09T08:59:26.227Z,95671.97
2022-12-09T09:02:02.968Z,95674.34
2022-12-09T09:04:34.169Z,95679.09
2022-12-09T09:07:03.917Z,95670.91
2022-12-09T09:09:34.026Z,95660.63
2022-12-09T09:12:03.377Z,95656.38
2022-12-09T09:14:33.433Z,95654.00
2022-12-09T09:17:02.727Z,95657.97
2022-12-09T09:19:34.299Z,95650.28
2022-12-09T09:22:03.794Z,95656.66
2022-12-09T09:24:41.755Z,95651.91
2022-12-09T09:27:14.208Z,95652.16
2022-12-09T09:29:43.229Z,95644.75
2022-12-09T09:32:13.398Z,95648.22
2022-12-09T09:34:50.778Z,95640.25
2022-12-09T09:37:25.228Z,95648.22
2022-12-09T09:39:59.079Z,95638.94
2022-12-09T09:42:35.780Z,95641.31
2022-12-09T09:45:07.458Z,95638.66
2022-12-09T09:47:40.774Z,95648.22
2022-12-09T09:50:28.487Z,95662.97
2022-12-09T09:52:58.384Z,95648.22
2022-12-09T09:55:33.948Z,95636.03
2022-12-09T09:58:11.818Z,95628.38
2022-12-09T10:00:46.044Z,95624.41
2022-12-09T10:03:19.228Z,95610.13
2022-12-09T10:05:52.917Z,95609.31
2022-12-09T10:08:34.753Z,95614.81
2022-12-09T10:11:18.923Z,95616.94
2022-12-09T10:13:52.915Z,95623.81
2022-12-09T10:16:26.223Z,95628.59
2022-12-09T10:19:08.889Z,95620.16
2022-12-09T10:21:43.476Z,95607.94
2022-12-09T10:24:21.082Z,95613.25
2022-12-09T10:27:00.733Z,95606.38
2022-12-09T10:29:42.800Z,95600.03
2022-12-09T10:32:17.040Z,95593.63
2022-12-09T10:34:54.093Z,95591.47
2022-12-09T10:37:35.333Z,95591.25
2022-12-09T10:40:17.773Z,95591.97
2022-12-09T10:43:06.478Z,95590.66
2022-12-09T10:46:15.090Z,95590.16
2022-12-09T10:48:33.262Z,95578.81
2022-12-09T10:51:06.096Z,95579.91
2022-12-09T10:53:37.622Z,95568.78
2022-12-09T10:56:17.357Z,95570.09
2022-12-09T10:58:46.639Z,95568.97
2022-12-09T11:01:17.473Z,95560.28
2022-12-09T11:03:50.704Z,95570.88
2022-12-09T11:06:24.646Z,95570.09
2022-12-09T11:08:58.009Z,95571.94
2022-12-09T11:11:41.392Z,95567.63
2022-12-09T11:14:24.067Z,95562.84
2022-12-09T11:16:54.587Z,95557.50
2022-12-09T11:19:35.134Z,95543.22
2022-12-09T11:22:29.080Z,95538.78
2022-12-09T11:25:19.283Z,95530.81
2022-12-09T11:27:51.664Z,95541.63
2022-12-09T11:30:23.889Z,95529.78
2022-12-09T11:33:02.585Z,95526.25
2022-12-09T11:35:37.287Z,95519.06
2022-12-09T11:38:18.258Z,95512.97
2022-12-09T11:41:02.944Z,95509.53
2022-12-09T11:43:38.488Z,95505.50
2022-12-09T11:46:18.156Z,95511.78
2022-12-09T11:48:54.653Z,95498.16
2022-12-09T11:51:27.569Z,95501.81
2022-12-09T11:54:03.922Z,95485.44
2022-12-09T11:56:35.083Z,95490.22
2022-12-09T11:59:08.377Z,95488.06
2022-12-09T12:01:47.051Z,95480.03
2022-12-09T12:04:19.368Z,95474.72
2022-12-09T12:06:50.109Z,95477.34
2022-12-09T12:09:26.266Z,95483.22
2022-12-09T12:12:03.005Z,95481.00
2022-12-09T12:14:32.347Z,95487.25
2022-12-09T12:17:09.065Z,95481.09
2022-12-09T12:19:41.068Z,95480.69
2022-12-09T12:22:35.581Z,95480.38
2022-12-09T12:25:17.450Z,95469.97
2022-12-09T12:28:02.550Z,95481.66
2022-12-09T12:30:36.762Z,95470.59
2022-12-09T12:36:17.683Z,95475.25
2022-12-09T12:39:02.831Z,95470.31
2022-12-09T12:41:39.518Z,95465.78
2022-12-09T12:44:41.881Z,95457.22
2022-12-09T12:47:16.875Z,95452.28
2022-12-09T12:49:56.154Z,95455.09
2022-12-09T12:55:48.107Z,95465.03
2022-12-09T12:58:24.984Z,95457.97
2022-12-09T13:01:05.259Z,95455.00
2022-12-09T13:03:40.584Z,95462.88
2022-12-09T13:06:13.064Z,95451.91
2022-12-09T13:08:47.480Z,95458.75
2022-12-09T13:11:20.953Z,95465.03
2022-12-09T13:13:53.030Z,95464.78
2022-12-09T13:16:28.965Z,95462.66
2022-12-09T13:19:05.985Z,95457.03
2022-12-09T13:21:35.800Z,95460.84
2022-12-09T13:24:16.157Z,95457.16
2022-12-09T13:26:52.398Z,95455.56
2022-12-09T13:29:32.478Z,95459.19
2022-12-09T13:32:12.110Z,95447.00
2022-12-09T13:34:43.165Z,95457.38
2022-12-09T13:37:33.152Z,95451.28
2022-12-09T13:40:02.763Z,95453.09
2022-12-09T13:42:56.718Z,95446.56
2022-12-09T13:45:37.409Z,95450.72
2022-12-09T13:48:44.904Z,95444.06
2022-12-09T13:51:15.500Z,95444.34
2022-12-09T13:53:51.294Z,95445.34
2022-12-09T13:56:26.938Z,95439.53
2022-12-09T13:59:12.814Z,95451.75
2022-12-09T14:01:50.228Z,95457.97
2022-12-09T14:04:24.828Z,95453.13
2022-12-09T14:06:58.269Z,95452.56
2022-12-09T14:09:42.121Z,95441.97
2022-12-09T14:12:13.271Z,95436.63
2022-12-09T14:14:52.751Z,95441.19
2022-12-09T14:18:01.396Z,95450.88
2022-12-09T14:20:37.766Z,95462.00
2022-12-09T14:23:14.989Z,95464.31
2022-12-09T14:26:03.018Z,95458.63
2022-12-09T14:28:52.915Z,95471.13
2022-12-09T14:32:00.396Z,95465.13
2022-12-09T14:34:41.329Z,95457.09
2022-12-09T14:37:36.844Z,95460.09
2022-12-09T14:40:26.473Z,95464.31
2022-12-09T14:43:03.727Z,95459.28
2022-12-09T14:45:37.617Z,95466.66
2022-12-09T14:48:10.988Z,95465.13
2022-12-09T14:50:41.038Z,95471.97
2022-12-09T14:53:22.141Z,95471.97
2022-12-09T14:56:00.344Z,95470.84
2022-12-09T14:58:29.643Z,95465.06
2022-12-09T15:01:03.342Z,95470.84
2022-12-09T15:03:42.771Z,95471.88
2022-12-09T15:06:19.373Z,95471.38
2022-12-09T15:08:51.414Z,95475.59
2022-12-09T15:11:22.469Z,95475.03
2022-12-09T15:13:54.025Z,95469.97
2022-12-09T15:16:26.055Z,95477.19
2022-12-09T15:18:56.008Z,95477.72
2022-12-09T15:21:29.301Z,95482.81
2022-12-09T15:24:01.059Z,95485.75
2022-12-09T15:26:32.405Z,95481.69
2022-12-09T15:29:05.377Z,95478.19
2022-12-09T15:31:35.162Z,95470.84
2022-12-09T15:34:13.193Z,95480.44
2022-12-09T15:36:44.694Z,95477.72
2022-12-09T15:39:20.001Z,95497.41
2022-12-09T15:42:10.939Z,95492.09
2022-12-09T15:44:44.012Z,95506.41
2022-12-09T15:47:16.645Z,95506.72
2022-12-09T15:49:53.470Z,95515.41
2022-12-09T15:52:25.127Z,95512.19
2022-12-09T15:54:58.865Z,95495.78
2022-12-09T15:57:29.875Z,95494.75
2022-12-09T15:59:59.892Z,95490.50
2022-12-09T16:02:30.201Z,95493.41
2022-12-09T16:05:01.822Z,95500.84
2022-12-09T16:07:32.914Z,95493.16
2022-12-09T16:10:10.995Z,95500.63
2022-12-09T16:12:41.452Z,95490.56
2022-12-09T16:15:13.010Z,95492.16
2022-12-09T16:17:53.953Z,95498.72
2022-12-09T16:20:33.936Z,95495.38
2022-12-09T16:23:03.530Z,95501.44
2022-12-09T16:25:39.272Z,95505.34
2022-12-09T16:28:08.874Z,95516.47
2022-12-09T16:30:46.499Z,95510.59
2022-12-09T16:33:18.768Z,95509.75
2022-12-09T16:35:56.772Z,95525.56
2022-12-09T16:38:26.258Z,95529.25
2022-12-09T16:41:10.961Z,95528.72
2022-12-09T16:43:57.585Z,95525.75
2022-12-09T16:46:41.390Z,95529.31
2022-12-09T16:49:10.399Z,95526.66
2022-12-09T16:51:40.107Z,95524.53
2022-12-09T16:54:20.174Z,95524.53
2022-12-09T16:56:52.059Z,95534.56
2022-12-09T16:59:21.238Z,95526.66
2022-12-09T17:01:50.453Z,95522.38
2022-12-09T17:04:21.146Z,95528.94
2022-12-09T17:06:50.138Z,95532.91
2022-12-09T17:09:19.345Z,95529.47
2022-12-09T17:11:49.408Z,95529.16
2022-12-09T17:14:19.886Z,95540.34
2022-12-09T17:16:49.249Z,95534.97
2022-12-09T17:19:23.692Z,95545.25
2022-12-09T17:21:52.599Z,95540.75
2022-12-09T17:24:22.091Z,95548.44
2022-12-09T17:26:50.998Z,95544.94
2022-12-09T17:29:21.531Z,95558.66
2022-12-09T17:31:52.105Z,95557.69
2022-12-09T17:34:24.843Z,95557.13
2022-12-09T17:36:55.181Z,95574.00
2022-12-09T17:39:24.894Z,95572.69
2022-12-09T17:41:54.079Z,95572.28
2022-12-09T17:44:25.018Z,95583.63
2022-12-09T17:46:58.823Z,95580.69
2022-12-09T17:49:28.535Z,95577.22
2022-12-09T17:52:01.370Z,95572.69
2022-12-09T17:54:30.518Z,95577.50
2022-12-09T17:56:59.617Z,95578.56
2022-12-09T17:59:30.189Z,95581.16
2022-12-09T18:02:03.805Z,95580.63
2022-12-09T18:04:33.252Z,95598.66
2022-12-09T18:07:02.368Z,95592.00
2022-12-09T18:09:31.388Z,95590.66
2022-12-09T18:12:00.215Z,95600.22
2022-12-09T18:14:31.147Z,95602.88
2022-12-09T18:17:01.148Z,95606.03
2022-12-09T18:19:30.499Z,95607.91
2022-12-09T18:21:59.744Z,95600.72
2022-12-09T18:24:29.612Z,95615.34
2022-12-09T18:26:58.704Z,95618.50
2022-12-09T18:29:28.209Z,95618.53
2022-12-09T18:32:02.304Z,95623.56
2022-12-09T18:34:33.004Z,95621.75
2022-12-09T18:37:02.256Z,95627.31
2022-12-09T18:39:31.458Z,95624.13
2022-12-09T18:42:00.348Z,95623.88
2022-12-09T18:44:29.346Z,95621.47
2022-12-09T18:46:58.133Z,95620.91
2022-12-09T18:49:28.850Z,95616.94
2022-12-09T18:51:57.658Z,95618.78
2022-12-09T18:54:28.290Z,95614.56
2022-12-09T18:57:01.837Z,95618.50
2022-12-09T18:59:31.551Z,95619.28
2022-12-09T19:02:00.903Z,95632.25
2022-12-09T19:04:35.017Z,95633.16
2022-12-09T19:07:04.323Z,95627.84
2022-12-09T19:09:35.156Z,95631.00
2022-12-09T19:12:38.299Z,95626.75
2022-12-09T19:14:54.546Z,95621.44
2022-12-09T19:17:23.644Z,95627.81
2022-12-09T19:19:54.327Z,95628.31
2022-12-09T19:22:23.167Z,95624.59
2022-12-09T19:24:52.166Z,95627.75
2022-12-09T19:27:21.363Z,95637.81
2022-12-09T19:29:50.377Z,95634.06
2022-12-09T19:32:51.429Z,95623.03
2022-12-09T19:35:10.641Z,95617.72
2022-12-09T19:37:39.962Z,95611.63
2022-12-09T19:40:11.030Z,95630.94
2022-12-09T19:43:05.399Z,95635.75
2022-12-09T19:45:35.212Z,95631.50
2022-12-09T19:48:04.517Z,95631.25
2022-12-09T19:50:36.682Z,95636.28
2022-12-09T19:53:05.563Z,95639.59
2022-12-09T19:55:36.207Z,95644.31
2022-12-09T19:58:04.968Z,95646.13
2022-12-09T20:00:39.691Z,95648.25
2022-12-09T20:03:10.741Z,95652.19
2022-12-09T20:05:48.775Z,95653.78
2022-12-09T20:08:17.877Z,95650.63
2022-12-09T20:10:47.783Z,95654.34
2022-12-09T20:13:17.384Z,95657.50
2022-12-09T20:15:46.596Z,95655.94
2022-12-09T20:18:15.794Z,95655.50
2022-12-09T20:20:48.991Z,95660.75
2022-12-09T20:23:18.392Z,95664.38
2022-12-09T20:25:47.282Z,95676.03
2022-12-09T20:28:16.898Z,95676.66
2022-12-09T20:30:46.187Z,95680.84
2022-12-09T20:33:15.489Z,95682.19
2022-12-09T20:35:46.024Z,95681.66
2022-12-09T20:38:17.167Z,95675.28
2022-12-09T20:40:46.262Z,95672.63
2022-12-09T20:43:15.198Z,95684.00
2022-12-09T20:45:44.508Z,95686.38
2022-12-09T20:48:13.501Z,95677.09
2022-12-09T20:50:51.251Z,95671.28
2022-12-09T20:53:24.339Z,95674.03
2022-12-09T20:55:57.899Z,95671.84
2022-12-09T20:58:27.038Z,95679.53
2022-12-09T21:00:55.965Z,95674.50
2022-12-09T21:03:25.051Z,95677.69
2022-12-09T21:05:59.038Z,95672.94
2022-12-09T21:08:31.759Z,95675.56
2022-12-09T21:11:05.322Z,95680.84
2022-12-09T21:13:37.489Z,95682.44
2022-12-09T21:16:08.154Z,95679.81
2022-12-09T21:18:37.693Z,95680.38
2022-12-09T21:21:07.543Z,95680.94
2022-12-09T21:23:39.102Z,95696.25
2022-12-09T21:26:11.372Z,95701.94
2022-12-09T21:28:44.566Z,95698.69
2022-12-09T21:31:18.348Z,95708.13
2022-12-09T21:33:48.490Z,95706.50
2022-12-09T21:36:18.594Z,95704.06
2022-12-09T21:38:49.020Z,95697.66
2022-12-09T21:41:21.827Z,95691.72
2022-12-09T21:43:50.711Z,95691.06
2022-12-09T21:46:22.291Z,95686.28
2022-12-09T21:48:54.239Z,95688.88
2022-12-09T21:51:26.604Z,95696.31
2022-12-09T21:53:57.754Z,95696.84
2022-12-09T21:56:30.943Z,95694.44
2022-12-09T21:59:00.655Z,95698.94
2022-12-09T22:01:31.620Z,95695.22
2022-12-09T22:04:02.427Z,95700.50
2022-12-09T22:06:31.833Z,95706.31
2022-12-09T22:09:02.999Z,95712.69
2022-12-09T22:11:35.588Z,95716.38
2022-12-09T22:14:05.231Z,95718.78
2022-12-09T22:16:35.839Z,95715.34
2022-12-09T22:19:06.324Z,95716.47
2022-12-09T22:21:36.884Z,95716.97
2022-12-09T22:24:09.575Z,95715.38
2022-12-09T22:26:38.626Z,95713.25
2022-12-09T22:29:09.039Z,95715.91
2022-12-09T22:31:39.850Z,95712.47
2022-12-09T22:34:12.641Z,95718.03
2022-12-09T22:36:42.497Z,95726.47
2022-12-09T22:39:14.867Z,95729.13
2022-12-09T22:41:45.968Z,95726.28
2022-12-09T22:44:16.543Z,95719.63
2022-12-09T22:46:45.843Z,95714.31
2022-12-09T22:49:16.784Z,95716.44
2022-12-09T22:51:46.087Z,95710.88
2022-12-09T22:54:16.617Z,95711.94
2022-12-09T22:56:46.019Z,95701.16
2022-12-09T22:59:16.300Z,95703.75
2022-12-09T23:01:47.897Z,95706.69
2022-12-09T23:04:21.912Z,95705.09
2022-12-09T23:06:51.802Z,95695.81
2022-12-09T23:09:24.270Z,95698.53
2022-12-09T23:11:57.072Z,95700.63
2022-12-09T23:14:25.940Z,95696.63
2022-12-09T23:16:55.261Z,95696.38
2022-12-09T23:19:27.242Z,95704.91
2022-12-09T23:21:56.339Z,95698.53
2022-12-09T23:24:29.840Z,95694.56
2022-12-09T23:27:09.058Z,95704.34
2022-12-09T23:29:38.476Z,95702.25
2022-12-09T23:32:07.368Z,95711.25
2022-12-09T23:34:40.150Z,95701.19
2022-12-09T23:37:09.350Z,95704.31
2022-12-09T23:39:39.676Z,95709.84
2022-12-09T23:42:08.875Z,95714.91
2022-12-09T23:44:39.252Z,95718.88
2022-12-09T23:47:08.704Z,95710.09
2022-12-09T23:49:38.006Z,95722.06
2022-12-09T23:52:09.890Z,95729.25
2022-12-09T23:54:40.398Z,95726.06
2022-12-09T23:57:09.782Z,95726.06
2022-12-09T23:59:38.830Z,95723.66
